createdAt,value
2018-06-11T00:00:02.596Z,97.42
2018-06-11T00:00:41.555Z,97.14
2018-06-11T00:01:41.465Z,97.14
2018-06-11T00:02:41.399Z,97.14
2018-06-11T00:04:02.337Z,97.42
2018-06-11T00:05:02.255Z,97.42
2018-06-11T00:05:41.205Z,97.24
2018-06-11T00:06:41.958Z,97.04
2018-06-11T00:07:41.904Z,96.75
2018-06-11T00:09:01.975Z,97.04
2018-06-11T00:10:01.894Z,96.85
2018-06-11T00:10:40.854Z,96.75
2018-06-11T00:11:40.805Z,97.62
2018-06-11T00:12:40.730Z,97.42
2018-06-11T00:14:01.633Z,96.94
2018-06-11T00:15:01.573Z,96.89
2018-06-11T00:15:40.521Z,96.66
2018-06-11T00:16:40.443Z,96.94
2018-06-11T00:17:40.380Z,97.04
2018-06-11T00:19:01.314Z,96.56
2018-06-11T00:20:01.227Z,96.85
2018-06-11T00:20:40.978Z,96.75
2018-06-11T00:21:40.897Z,96.85
2018-06-11T00:22:40.828Z,96.56
2018-06-11T00:24:00.940Z,96.66
2018-06-11T00:25:00.879Z,96.56
2018-06-11T00:25:39.874Z,96.56
2018-06-11T00:26:39.788Z,96.66
2018-06-11T00:27:39.716Z,96.56
2018-06-11T00:29:00.619Z,96.56
2018-06-11T00:30:00.613Z,96.66
2018-06-11T00:30:39.475Z,96.66
2018-06-11T00:31:39.410Z,96.66
2018-06-11T00:32:39.369Z,96.08
2018-06-11T00:34:00.244Z,96.17
2018-06-11T00:35:00.225Z,96.27
2018-06-11T00:35:39.951Z,96.08
2018-06-11T00:36:39.891Z,96.56
2018-06-11T00:37:39.833Z,96.08
2018-06-11T00:38:59.953Z,95.89
2018-06-11T00:39:59.875Z,96.46
2018-06-11T00:40:38.788Z,96.08
2018-06-11T00:41:38.721Z,96.66
2018-06-11T00:42:38.655Z,96.56
2018-06-11T00:43:59.751Z,96.56
2018-06-11T00:45:00.365Z,96.46
2018-06-11T00:45:38.532Z,96.56
2018-06-11T00:46:39.987Z,96.56
2018-06-11T00:47:39.479Z,96.66
2018-06-11T00:48:59.594Z,95.98
2018-06-11T00:49:59.599Z,96.56
2018-06-11T00:50:38.279Z,96.17
2018-06-11T00:51:38.077Z,97.04
2018-06-11T00:52:37.961Z,96.56
2018-06-11T00:53:58.879Z,96.46
2018-06-11T00:54:58.818Z,96.66
2018-06-11T00:55:37.788Z,97.14
2018-06-11T00:56:37.681Z,96.85
2018-06-11T00:57:37.609Z,96.56
2018-06-11T00:58:58.529Z,96.37
2018-06-11T00:59:58.472Z,96.27
2018-06-11T01:00:37.399Z,96.46
2018-06-11T01:01:37.392Z,96.66
2018-06-11T01:02:37.269Z,96.27
2018-06-11T01:03:58.191Z,96.66
2018-06-11T01:04:58.130Z,96.85
2018-06-11T01:05:37.065Z,96.22
2018-06-11T01:06:36.995Z,96.66
2018-06-11T01:07:36.951Z,96.51
2018-06-11T01:08:57.853Z,96.66
2018-06-11T01:09:57.769Z,96.56
2018-06-11T01:10:36.715Z,96.17
2018-06-11T01:11:36.645Z,96.56
2018-06-11T01:12:36.631Z,96.85
2018-06-11T01:13:57.504Z,96.27
2018-06-11T01:14:57.450Z,96.46
2018-06-11T01:15:36.419Z,96.56
2018-06-11T01:16:36.314Z,96.66
2018-06-11T01:17:36.248Z,96.03
2018-06-11T01:18:57.162Z,96.80
2018-06-11T01:19:57.079Z,96.17
2018-06-11T01:20:36.053Z,96.85
2018-06-11T01:21:35.957Z,96.37
2018-06-11T01:22:35.894Z,96.61
2018-06-11T01:23:56.802Z,96.12
2018-06-11T01:24:56.756Z,96.51
2018-06-11T01:25:35.701Z,96.61
2018-06-11T01:26:35.667Z,96.99
2018-06-11T01:27:35.561Z,96.32
2018-06-11T01:28:56.466Z,96.51
2018-06-11T01:29:56.406Z,96.80
2018-06-11T01:30:35.383Z,96.61
2018-06-11T01:31:35.309Z,96.70
2018-06-11T01:32:35.229Z,96.99
2018-06-11T01:33:56.116Z,97.09
2018-06-11T01:34:56.051Z,96.22
2018-06-11T01:35:34.989Z,96.70
2018-06-11T01:36:34.927Z,96.42
2018-06-11T01:37:34.874Z,96.61
2018-06-11T01:38:55.763Z,96.80
2018-06-11T01:39:55.700Z,96.70
2018-06-11T01:40:34.661Z,96.61
2018-06-11T01:41:34.582Z,96.61
2018-06-11T01:42:34.531Z,96.12
2018-06-11T01:43:55.423Z,96.32
2018-06-11T01:44:55.358Z,96.51
2018-06-11T01:45:34.300Z,96.61
2018-06-11T01:46:34.245Z,96.61
2018-06-11T01:47:34.187Z,96.42
2018-06-11T01:48:55.070Z,96.80
2018-06-11T01:49:55.005Z,96.42
2018-06-11T01:50:33.964Z,96.42
2018-06-11T01:51:33.891Z,96.51
2018-06-11T01:52:33.851Z,96.51
2018-06-11T01:53:54.759Z,96.70
2018-06-11T01:54:54.671Z,96.32
2018-06-11T01:55:33.610Z,96.42
2018-06-11T01:56:33.542Z,96.51
2018-06-11T01:57:33.469Z,96.99
2018-06-11T01:58:54.394Z,96.61
2018-06-11T01:59:54.982Z,96.61
2018-06-11T02:00:33.262Z,96.56
2018-06-11T02:01:33.201Z,96.37
2018-06-11T02:02:33.137Z,97.04
2018-06-11T02:03:54.045Z,96.27
2018-06-11T02:04:53.981Z,96.85
2018-06-11T02:05:32.906Z,97.24
2018-06-11T02:06:32.885Z,96.85
2018-06-11T02:07:32.796Z,96.85
2018-06-11T02:08:53.711Z,97.33
2018-06-11T02:09:53.636Z,96.47
2018-06-11T02:10:32.594Z,97.04
2018-06-11T02:11:32.509Z,97.04
2018-06-11T02:12:32.447Z,96.56
2018-06-11T02:13:53.386Z,97.42
2018-06-11T02:14:53.287Z,96.75
2018-06-11T02:15:32.229Z,96.70
2018-06-11T02:16:32.162Z,97.42
2018-06-11T02:17:32.113Z,96.66
2018-06-11T02:18:53.029Z,96.56
2018-06-11T02:19:52.958Z,96.56
2018-06-11T02:20:31.881Z,96.61
2018-06-11T02:21:31.817Z,96.56
2018-06-11T02:22:31.755Z,96.37
2018-06-11T02:23:52.684Z,96.70
2018-06-11T02:24:52.602Z,96.75
2018-06-11T02:25:31.557Z,96.56
2018-06-11T02:26:31.463Z,96.66
2018-06-11T02:27:31.419Z,96.37
2018-06-11T02:28:52.317Z,96.94
2018-06-11T02:29:52.247Z,96.66
2018-06-11T02:30:31.179Z,96.66
2018-06-11T02:31:31.128Z,96.75
2018-06-11T02:32:31.106Z,96.85
2018-06-11T02:33:51.972Z,97.24
2018-06-11T02:34:51.927Z,96.85
2018-06-11T02:35:30.866Z,97.52
2018-06-11T02:36:30.779Z,97.33
2018-06-11T02:37:30.724Z,96.90
2018-06-11T02:38:51.612Z,96.70
2018-06-11T02:39:51.545Z,96.99
2018-06-11T02:40:30.501Z,97.14
2018-06-11T02:41:30.522Z,97.19
2018-06-11T02:42:30.377Z,96.51
2018-06-11T02:43:51.279Z,97.28
2018-06-11T02:44:51.214Z,97.14
2018-06-11T02:45:30.158Z,97.33
2018-06-11T02:46:30.133Z,97.52
2018-06-11T02:47:30.026Z,97.04
2018-06-11T02:48:50.995Z,96.56
2018-06-11T02:49:50.884Z,97.04
2018-06-11T02:50:29.811Z,97.42
2018-06-11T02:51:29.733Z,96.85
2018-06-11T02:52:29.730Z,96.75
2018-06-11T02:53:50.593Z,96.85
2018-06-11T02:54:50.527Z,97.14
2018-06-11T02:55:29.485Z,96.85
2018-06-11T02:56:29.396Z,97.38
2018-06-11T02:57:29.327Z,96.99
2018-06-11T02:58:50.231Z,97.09
2018-06-11T02:59:50.197Z,97.28
2018-06-11T03:00:29.115Z,97.19
2018-06-11T03:01:29.043Z,97.47
2018-06-11T03:02:28.975Z,97.38
2018-06-11T03:03:49.969Z,97.28
2018-06-11T03:04:49.832Z,97.28
2018-06-11T03:05:30.495Z,97.19
2018-06-11T03:06:28.714Z,97.19
2018-06-11T03:07:28.672Z,97.19
2018-06-11T03:08:49.542Z,97.19
2018-06-11T03:09:49.466Z,97.19
2018-06-11T03:10:28.431Z,97.86
2018-06-11T03:11:28.360Z,97.14
2018-06-11T03:12:28.284Z,97.33
2018-06-11T03:13:49.206Z,97.09
2018-06-11T03:14:49.158Z,97.38
2018-06-11T03:15:28.997Z,97.33
2018-06-11T03:16:28.025Z,97.04
2018-06-11T03:17:27.959Z,97.24
2018-06-11T03:18:48.871Z,96.99
2018-06-11T03:19:48.803Z,97.33
2018-06-11T03:20:27.721Z,97.28
2018-06-11T03:21:27.682Z,97.19
2018-06-11T03:22:27.635Z,98.00
2018-06-11T03:23:48.537Z,97.09
2018-06-11T03:24:48.462Z,97.28
2018-06-11T03:25:27.399Z,98.05
2018-06-11T03:26:27.316Z,97.57
2018-06-11T03:27:27.261Z,97.19
2018-06-11T03:28:48.156Z,97.57
2018-06-11T03:29:48.086Z,97.28
2018-06-11T03:30:27.055Z,98.10
2018-06-11T03:31:26.966Z,97.24
2018-06-11T03:32:26.893Z,97.33
2018-06-11T03:33:47.831Z,97.91
2018-06-11T03:34:49.414Z,97.04
2018-06-11T03:35:26.685Z,97.24
2018-06-11T03:36:26.620Z,97.24
2018-06-11T03:37:26.546Z,97.33
2018-06-11T03:38:47.482Z,97.42
2018-06-11T03:39:47.391Z,97.24
2018-06-11T03:40:26.371Z,97.04
2018-06-11T03:41:26.268Z,97.14
2018-06-11T03:42:26.221Z,97.04
2018-06-11T03:43:47.124Z,97.04
2018-06-11T03:44:47.043Z,97.14
2018-06-11T03:45:25.993Z,97.33
2018-06-11T03:46:25.925Z,97.24
2018-06-11T03:47:25.951Z,97.91
2018-06-11T03:48:46.769Z,97.42
2018-06-11T03:49:46.725Z,97.09
2018-06-11T03:50:25.683Z,97.76
2018-06-11T03:51:25.575Z,97.57
2018-06-11T03:52:25.519Z,97.28
2018-06-11T03:53:46.415Z,97.28
2018-06-11T03:54:46.361Z,97.14
2018-06-11T03:55:25.319Z,97.38
2018-06-11T03:56:25.261Z,97.19
2018-06-11T03:57:25.167Z,97.38
2018-06-11T03:58:46.088Z,97.28
2018-06-11T03:59:46.016Z,97.76
2018-06-11T04:00:24.970Z,97.86
2018-06-11T04:01:24.884Z,97.28
2018-06-11T04:02:24.826Z,97.86
2018-06-11T04:03:45.740Z,97.38
2018-06-11T04:04:45.674Z,97.86
2018-06-11T04:05:24.645Z,97.67
2018-06-11T04:06:24.551Z,97.76
2018-06-11T04:07:24.515Z,97.67
2018-06-11T04:08:45.396Z,97.57
2018-06-11T04:09:45.329Z,97.38
2018-06-11T04:10:24.291Z,97.76
2018-06-11T04:11:24.224Z,97.86
2018-06-11T04:12:24.120Z,97.67
2018-06-11T04:13:45.050Z,97.57
2018-06-11T04:14:44.962Z,97.86
2018-06-11T04:15:23.946Z,97.47
2018-06-11T04:16:23.839Z,97.14
2018-06-11T04:17:23.770Z,97.96
2018-06-11T04:18:44.685Z,97.28
2018-06-11T04:19:44.673Z,97.38
2018-06-11T04:20:23.563Z,97.09
2018-06-11T04:21:23.520Z,97.33
2018-06-11T04:22:23.439Z,97.09
2018-06-11T04:23:44.344Z,97.04
2018-06-11T04:24:44.279Z,97.04
2018-06-11T04:25:23.273Z,97.28
2018-06-11T04:26:23.192Z,97.09
2018-06-11T04:27:23.099Z,97.19
2018-06-11T04:28:44.057Z,97.24
2018-06-11T04:29:43.927Z,97.19
2018-06-11T04:30:22.865Z,96.90
2018-06-11T04:31:22.801Z,97.38
2018-06-11T04:32:22.795Z,96.80
2018-06-11T04:33:43.700Z,97.14
2018-06-11T04:34:43.578Z,97.42
2018-06-11T04:35:22.521Z,96.70
2018-06-11T04:36:22.462Z,96.66
2018-06-11T04:37:22.381Z,96.56
2018-06-11T04:38:43.301Z,96.56
2018-06-11T04:39:43.343Z,97.52
2018-06-11T04:40:22.186Z,97.14
2018-06-11T04:41:22.136Z,96.32
2018-06-11T04:42:22.060Z,96.51
2018-06-11T04:43:42.954Z,97.14
2018-06-11T04:44:42.881Z,97.19
2018-06-11T04:45:21.862Z,97.28
2018-06-11T04:46:21.759Z,97.42
2018-06-11T04:47:21.694Z,96.94
2018-06-11T04:48:42.603Z,96.94
2018-06-11T04:49:42.547Z,97.42
2018-06-11T04:50:21.494Z,97.33
2018-06-11T04:51:21.408Z,97.24
2018-06-11T04:52:21.345Z,97.42
2018-06-11T04:53:42.254Z,97.33
2018-06-11T04:54:42.202Z,96.85
2018-06-11T04:55:21.145Z,97.04
2018-06-11T04:56:21.063Z,96.47
2018-06-11T04:57:21.026Z,96.75
2018-06-11T04:58:41.927Z,96.47
2018-06-11T04:59:41.844Z,96.85
2018-06-11T05:00:20.797Z,97.14
2018-06-11T05:01:20.747Z,97.14
2018-06-11T05:02:20.656Z,96.75
2018-06-11T05:03:41.571Z,97.04
2018-06-11T05:04:41.507Z,96.75
2018-06-11T05:05:20.464Z,96.37
2018-06-11T05:06:20.382Z,96.75
2018-06-11T05:07:20.305Z,96.47
2018-06-11T05:08:41.227Z,96.56
2018-06-11T05:09:41.161Z,96.94
2018-06-11T05:10:20.099Z,96.47
2018-06-11T05:11:20.039Z,96.37
2018-06-11T05:12:19.956Z,96.37
2018-06-11T05:13:40.901Z,96.66
2018-06-11T05:14:40.829Z,96.56
2018-06-11T05:15:19.760Z,96.37
2018-06-11T05:16:19.733Z,96.47
2018-06-11T05:17:19.626Z,96.75
2018-06-11T05:18:40.550Z,96.47
2018-06-11T05:19:40.481Z,96.42
2018-06-11T05:20:19.417Z,96.61
2018-06-11T05:21:19.330Z,96.32
2018-06-11T05:22:19.373Z,96.75
2018-06-11T05:23:40.246Z,96.32
2018-06-11T05:24:40.139Z,96.12
2018-06-11T05:25:19.073Z,96.22
2018-06-11T05:26:19.023Z,96.22
2018-06-11T05:27:18.924Z,96.51
2018-06-11T05:28:39.888Z,96.32
2018-06-11T05:29:39.828Z,96.32
2018-06-11T05:30:18.733Z,96.22
2018-06-11T05:31:18.680Z,96.61
2018-06-11T05:32:18.667Z,96.03
2018-06-11T05:33:39.534Z,96.70
2018-06-11T05:34:39.496Z,96.22
2018-06-11T05:35:18.397Z,96.12
2018-06-11T05:36:18.336Z,95.74
2018-06-11T05:37:18.248Z,96.51
2018-06-11T05:38:39.161Z,95.74
2018-06-11T05:39:39.105Z,95.94
2018-06-11T05:40:18.060Z,96.12
2018-06-11T05:41:17.966Z,96.03
2018-06-11T05:42:17.888Z,96.51
2018-06-11T05:43:38.811Z,96.12
2018-06-11T05:44:38.771Z,96.37
2018-06-11T05:45:17.684Z,95.89
2018-06-11T05:46:17.618Z,95.74
2018-06-11T05:47:17.542Z,96.12
2018-06-11T05:48:38.464Z,95.94
2018-06-11T05:49:38.398Z,96.12
2018-06-11T05:50:17.340Z,96.12
2018-06-11T05:51:17.316Z,96.42
2018-06-11T05:52:17.222Z,95.94
2018-06-11T05:53:38.138Z,95.94
2018-06-11T05:54:38.065Z,96.03
2018-06-11T05:55:17.005Z,95.89
2018-06-11T05:56:16.962Z,96.17
2018-06-11T05:57:16.886Z,96.17
2018-06-11T05:58:37.824Z,95.98
2018-06-11T05:59:37.735Z,95.98
2018-06-11T06:00:16.698Z,95.79
2018-06-11T06:01:25.637Z,95.50
2018-06-11T06:02:16.522Z,96.70
2018-06-11T06:03:37.471Z,95.12
2018-06-11T06:04:37.386Z,95.31
2018-06-11T06:05:16.317Z,95.69
2018-06-11T06:06:16.297Z,95.31
2018-06-11T06:07:16.173Z,95.21
2018-06-11T06:08:37.140Z,95.50
2018-06-11T06:09:37.041Z,94.54
2018-06-11T06:10:15.979Z,95.79
2018-06-11T06:11:15.917Z,95.50
2018-06-11T06:12:15.845Z,94.82
2018-06-11T06:13:36.751Z,94.82
2018-06-11T06:14:36.712Z,94.54
2018-06-11T06:15:15.630Z,94.73
2018-06-11T06:16:15.593Z,94.73
2018-06-11T06:17:15.500Z,94.92
2018-06-11T06:18:36.429Z,95.50
2018-06-11T06:19:36.389Z,95.02
2018-06-11T06:20:15.305Z,95.50
2018-06-11T06:21:15.231Z,95.50
2018-06-11T06:22:15.153Z,95.31
2018-06-11T06:23:36.067Z,95.31
2018-06-11T06:24:35.991Z,95.12
2018-06-11T06:25:14.978Z,94.92
2018-06-11T06:26:14.891Z,94.73
2018-06-11T06:27:14.805Z,95.16
2018-06-11T06:28:35.726Z,94.97
2018-06-11T06:29:35.658Z,94.87
2018-06-11T06:30:14.601Z,95.07
2018-06-11T06:31:14.563Z,94.97
2018-06-11T06:32:14.462Z,95.16
2018-06-11T06:33:35.398Z,95.16
2018-06-11T06:34:35.450Z,95.07
2018-06-11T06:35:14.266Z,94.78
2018-06-11T06:36:14.223Z,94.39
2018-06-11T06:37:14.143Z,94.87
2018-06-11T06:38:35.052Z,94.49
2018-06-11T06:39:35.032Z,95.07
2018-06-11T06:40:13.924Z,94.97
2018-06-11T06:41:13.847Z,95.26
2018-06-11T06:42:13.795Z,95.16
2018-06-11T06:43:34.705Z,94.68
2018-06-11T06:44:34.637Z,94.29
2018-06-11T06:45:13.584Z,94.06
2018-06-11T06:46:13.510Z,94.34
2018-06-11T06:47:13.438Z,94.34
2018-06-11T06:48:34.386Z,93.86
2018-06-11T06:49:34.361Z,93.43
2018-06-11T06:50:13.276Z,93.76
2018-06-11T06:51:13.167Z,94.00
2018-06-11T06:52:13.093Z,93.52
2018-06-11T06:53:34.037Z,93.52
2018-06-11T06:54:33.985Z,93.62
2018-06-11T06:55:12.895Z,93.91
2018-06-11T06:56:12.828Z,93.43
2018-06-11T06:57:12.774Z,93.43
2018-06-11T06:58:33.717Z,93.13
2018-06-11T06:59:33.651Z,93.23
2018-06-11T07:00:12.582Z,92.99
2018-06-11T07:01:12.487Z,92.22
2018-06-11T07:02:12.415Z,92.22
2018-06-11T07:03:33.355Z,92.32
2018-06-11T07:04:33.294Z,92.12
2018-06-11T07:05:12.228Z,91.83
2018-06-11T07:06:12.200Z,91.93
2018-06-11T07:07:12.759Z,91.74
2018-06-11T07:08:33.688Z,91.93
2018-06-11T07:09:32.954Z,92.32
2018-06-11T07:10:11.918Z,93.18
2018-06-11T07:11:11.839Z,92.12
2018-06-11T07:12:11.763Z,91.83
2018-06-11T07:13:32.674Z,92.46
2018-06-11T07:14:32.645Z,92.07
2018-06-11T07:15:11.555Z,90.72
2018-06-11T07:16:11.473Z,91.30
2018-06-11T07:17:11.425Z,91.93
2018-06-11T07:18:32.369Z,92.12
2018-06-11T07:19:32.275Z,92.02
2018-06-11T07:20:11.264Z,93.13
2018-06-11T07:21:11.755Z,92.94
2018-06-11T07:22:11.681Z,93.04
2018-06-11T07:23:32.002Z,93.81
2018-06-11T07:24:31.941Z,92.85
2018-06-11T07:25:10.865Z,93.33
2018-06-11T07:26:10.806Z,93.71
2018-06-11T07:27:10.919Z,92.75
2018-06-11T07:28:31.654Z,92.85
2018-06-11T07:29:31.613Z,92.94
2018-06-11T07:30:10.552Z,92.89
2018-06-11T07:31:10.487Z,92.50
2018-06-11T07:32:10.388Z,91.93
2018-06-11T07:33:31.328Z,91.44
2018-06-11T07:34:31.250Z,91.64
2018-06-11T07:35:10.217Z,91.54
2018-06-11T07:36:10.748Z,92.41
2018-06-11T07:37:10.661Z,92.41
2018-06-11T07:38:31.001Z,92.65
2018-06-11T07:39:30.915Z,91.97
2018-06-11T07:40:09.877Z,91.01
2018-06-11T07:41:09.788Z,91.20
2018-06-11T07:42:09.744Z,90.81
2018-06-11T07:43:30.662Z,90.53
2018-06-11T07:44:30.601Z,90.43
2018-06-11T07:45:09.549Z,90.81
2018-06-11T07:46:09.499Z,91.59
2018-06-11T07:47:09.420Z,91.53
2018-06-11T07:48:30.339Z,91.05
2018-06-11T07:49:30.244Z,90.67
2018-06-11T07:50:09.193Z,90.47
2018-06-11T07:51:09.749Z,89.22
2018-06-11T07:52:09.639Z,90.19
2018-06-11T07:53:30.007Z,89.65
2018-06-11T07:54:29.922Z,89.65
2018-06-11T07:55:08.858Z,89.26
2018-06-11T07:56:08.790Z,89.70
2018-06-11T07:57:08.727Z,89.89
2018-06-11T07:58:29.645Z,89.70
2018-06-11T07:59:29.637Z,89.51
2018-06-11T08:00:08.523Z,89.61
2018-06-11T08:01:08.463Z,89.61
2018-06-11T08:02:08.385Z,89.31
2018-06-11T08:03:29.318Z,90.33
2018-06-11T08:04:29.271Z,90.91
2018-06-11T08:05:08.240Z,88.68
2018-06-11T08:06:08.721Z,89.36
2018-06-11T08:07:08.677Z,90.03
2018-06-11T08:08:28.980Z,89.07
2018-06-11T08:09:28.922Z,88.49
2018-06-11T08:10:07.896Z,88.59
2018-06-11T08:11:07.806Z,88.73
2018-06-11T08:12:07.722Z,89.61
2018-06-11T08:13:28.685Z,88.64
2018-06-11T08:14:28.584Z,90.09
2018-06-11T08:15:07.530Z,89.03
2018-06-11T08:16:07.457Z,89.26
2018-06-11T08:17:07.393Z,89.65
2018-06-11T08:18:28.322Z,89.36
2018-06-11T08:19:28.272Z,89.26
2018-06-11T08:20:07.191Z,88.34
2018-06-11T08:21:07.144Z,87.76
2018-06-11T08:22:07.059Z,87.18
2018-06-11T08:23:27.995Z,87.66
2018-06-11T08:24:27.912Z,86.89
2018-06-11T08:25:06.888Z,86.69
2018-06-11T08:26:06.892Z,87.37
2018-06-11T08:27:06.808Z,86.99
2018-06-11T08:28:27.729Z,86.89
2018-06-11T08:29:27.602Z,87.08
2018-06-11T08:30:06.547Z,86.79
2018-06-11T08:31:06.520Z,86.55
2018-06-11T08:32:06.452Z,85.97
2018-06-11T08:33:27.341Z,85.77
2018-06-11T08:34:27.261Z,84.03
2018-06-11T08:35:06.208Z,85.39
2018-06-11T08:36:06.143Z,85.68
2018-06-11T08:37:06.070Z,86.06
2018-06-11T08:38:27.028Z,85.97
2018-06-11T08:39:26.944Z,85.97
2018-06-11T08:40:05.900Z,85.53
2018-06-11T08:41:05.833Z,85.39
2018-06-11T08:42:05.749Z,85.29
2018-06-11T08:43:26.669Z,85.97
2018-06-11T08:44:26.670Z,85.87
2018-06-11T08:45:05.549Z,85.97
2018-06-11T08:46:05.505Z,85.87
2018-06-11T08:47:05.449Z,84.13
2018-06-11T08:48:26.329Z,85.58
2018-06-11T08:49:26.281Z,85.58
2018-06-11T08:50:05.255Z,85.97
2018-06-11T08:51:05.154Z,85.87
2018-06-11T08:52:05.104Z,85.77
2018-06-11T08:53:26.011Z,85.87
2018-06-11T08:54:25.980Z,87.08
2018-06-11T08:55:04.902Z,85.73
2018-06-11T08:56:04.841Z,86.99
2018-06-11T08:57:04.764Z,87.66
2018-06-11T08:58:25.697Z,86.79
2018-06-11T08:59:25.622Z,87.18
2018-06-11T09:00:04.651Z,88.05
2018-06-11T09:01:04.516Z,87.66
2018-06-11T09:02:04.428Z,87.37
2018-06-11T09:03:25.384Z,88.15
2018-06-11T09:04:25.279Z,89.01
2018-06-11T09:05:04.265Z,89.40
2018-06-11T09:06:04.191Z,88.92
2018-06-11T09:07:04.205Z,87.95
2018-06-11T09:08:25.040Z,87.52
2018-06-11T09:09:24.986Z,87.91
2018-06-11T09:10:03.908Z,87.91
2018-06-11T09:11:03.854Z,88.78
2018-06-11T09:12:03.780Z,88.68
2018-06-11T09:13:24.691Z,89.07
2018-06-11T09:14:24.626Z,89.45
2018-06-11T09:15:03.607Z,89.07
2018-06-11T09:16:03.525Z,89.45
2018-06-11T09:17:03.438Z,88.68
2018-06-11T09:18:24.605Z,90.91
2018-06-11T09:19:24.292Z,89.61
2018-06-11T09:20:03.242Z,88.87
2018-06-11T09:21:03.189Z,89.36
2018-06-11T09:22:03.115Z,89.26
2018-06-11T09:23:24.051Z,89.07
2018-06-11T09:24:23.973Z,89.94
2018-06-11T09:25:02.975Z,89.45
2018-06-11T09:26:02.921Z,89.45
2018-06-11T09:27:02.767Z,90.19
2018-06-11T09:28:23.698Z,89.12
2018-06-11T09:29:23.644Z,89.22
2018-06-11T09:30:02.570Z,90.28
2018-06-11T09:31:02.562Z,89.94
2018-06-11T09:32:02.427Z,89.75
2018-06-11T09:33:23.374Z,89.94
2018-06-11T09:34:23.283Z,89.45
2018-06-11T09:35:02.241Z,89.65
2018-06-11T09:36:02.171Z,90.95
2018-06-11T09:37:02.102Z,90.33
2018-06-11T09:38:23.046Z,89.55
2018-06-11T09:39:22.980Z,90.19
2018-06-11T09:40:01.919Z,90.57
2018-06-11T09:41:01.835Z,89.36
2018-06-11T09:42:02.765Z,89.45
2018-06-11T09:43:22.690Z,89.55
2018-06-11T09:44:22.654Z,88.68
2018-06-11T09:45:01.580Z,88.87
2018-06-11T09:46:01.499Z,88.87
2018-06-11T09:47:01.513Z,89.31
2018-06-11T09:48:22.371Z,89.41
2018-06-11T09:49:22.283Z,89.07
2018-06-11T09:50:01.239Z,88.97
2018-06-11T09:51:01.184Z,88.39
2018-06-11T09:52:01.770Z,89.36
2018-06-11T09:53:22.020Z,88.68
2018-06-11T09:54:21.975Z,88.49
2018-06-11T09:55:00.918Z,88.59
2018-06-11T09:56:00.844Z,89.07
2018-06-11T09:57:00.774Z,89.26
2018-06-11T09:58:21.700Z,87.71
2018-06-11T09:59:21.620Z,88.39
2018-06-11T10:00:00.570Z,87.57
2018-06-11T10:01:00.536Z,86.89
2018-06-11T10:02:00.489Z,87.18
2018-06-11T10:03:21.393Z,86.99
2018-06-11T10:04:21.313Z,86.79
2018-06-11T10:05:00.275Z,86.31
2018-06-11T10:06:00.161Z,85.77
2018-06-11T10:07:00.683Z,85.68
2018-06-11T10:08:21.024Z,85.19
2018-06-11T10:09:20.964Z,84.32
2018-06-11T10:09:59.934Z,84.42
2018-06-11T10:10:59.837Z,84.32
2018-06-11T10:11:59.774Z,85.39
2018-06-11T10:13:20.690Z,84.08
2018-06-11T10:14:20.659Z,83.98
2018-06-11T10:14:59.595Z,83.20
2018-06-11T10:15:59.525Z,83.30
2018-06-11T10:16:59.440Z,82.53
2018-06-11T10:18:20.370Z,80.98
2018-06-11T10:19:20.294Z,81.85
2018-06-11T10:20:00.715Z,81.40
2018-06-11T10:20:59.744Z,79.60
2018-06-11T10:21:59.775Z,78.03
2018-06-11T10:23:20.052Z,76.91
2018-06-11T10:24:19.962Z,75.59
2018-06-11T10:24:58.913Z,73.58
2018-06-11T10:25:58.852Z,74.65
2018-06-11T10:26:58.796Z,73.88
2018-06-11T10:28:19.724Z,75.14
2018-06-11T10:29:19.649Z,75.59
2018-06-11T10:29:58.614Z,74.17
2018-06-11T10:30:58.557Z,72.03
2018-06-11T10:31:58.473Z,72.42
2018-06-11T10:33:19.420Z,71.64
2018-06-11T10:34:19.336Z,70.90
2018-06-11T10:34:58.300Z,70.32
2018-06-11T10:35:58.217Z,69.96
2018-06-11T10:36:58.160Z,70.12
2018-06-11T10:38:19.101Z,71.48
2018-06-11T10:39:19.034Z,71.16
2018-06-11T10:39:57.965Z,73.30
2018-06-11T10:40:57.917Z,72.77
2018-06-11T10:41:57.887Z,72.97
2018-06-11T10:43:18.783Z,73.94
2018-06-11T10:44:18.739Z,74.91
2018-06-11T10:44:57.659Z,73.65
2018-06-11T10:45:57.620Z,72.55
2018-06-11T10:46:57.562Z,73.42
2018-06-11T10:48:18.540Z,74.29
2018-06-11T10:49:18.437Z,74.39
2018-06-11T10:49:57.410Z,73.74
2018-06-11T10:50:57.328Z,73.26
2018-06-11T10:51:57.260Z,73.36
2018-06-11T10:53:18.205Z,73.07
2018-06-11T10:54:18.216Z,73.13
2018-06-11T10:54:57.052Z,73.61
2018-06-11T10:55:56.986Z,73.42
2018-06-11T10:56:56.930Z,73.90
2018-06-11T10:58:17.895Z,72.58
2018-06-11T10:59:17.802Z,73.61
2018-06-11T10:59:56.754Z,74.00
2018-06-11T11:00:56.692Z,73.03
2018-06-11T11:01:56.623Z,73.77
2018-06-11T11:03:17.532Z,74.29
2018-06-11T11:04:17.482Z,74.29
2018-06-11T11:04:56.441Z,73.80
2018-06-11T11:05:56.373Z,74.58
2018-06-11T11:06:56.305Z,71.96
2018-06-11T11:08:17.214Z,73.22
2018-06-11T11:09:17.181Z,72.93
2018-06-11T11:09:56.117Z,74.26
2018-06-11T11:10:56.071Z,74.35
2018-06-11T11:11:55.992Z,73.67
2018-06-11T11:13:16.911Z,73.38
2018-06-11T11:14:16.880Z,73.38
2018-06-11T11:14:55.822Z,73.77
2018-06-11T11:15:55.736Z,73.19
2018-06-11T11:16:55.669Z,73.09
2018-06-11T11:18:16.597Z,72.58
2018-06-11T11:19:16.562Z,70.39
2018-06-11T11:19:55.500Z,68.38
2018-06-11T11:20:55.424Z,68.28
2018-06-11T11:21:55.361Z,67.21
2018-06-11T11:23:16.307Z,66.53
2018-06-11T11:24:16.227Z,65.98
2018-06-11T11:24:55.207Z,66.11
2018-06-11T11:25:55.189Z,65.40
2018-06-11T11:26:55.056Z,63.87
2018-06-11T11:28:15.960Z,64.10
2018-06-11T11:29:15.907Z,62.45
2018-06-11T11:29:54.853Z,62.26
2018-06-11T11:30:54.795Z,62.16
2018-06-11T11:31:54.746Z,61.31
2018-06-11T11:33:15.690Z,59.85
2018-06-11T11:34:15.620Z,59.46
2018-06-11T11:34:54.556Z,61.77
2018-06-11T11:35:54.509Z,61.96
2018-06-11T11:36:54.461Z,60.24
2018-06-11T11:38:15.384Z,59.66
2018-06-11T11:39:15.300Z,60.05
2018-06-11T11:39:54.267Z,59.75
2018-06-11T11:40:54.188Z,60.70
2018-06-11T11:41:54.168Z,60.21
2018-06-11T11:43:15.067Z,60.60
2018-06-11T11:44:15.050Z,60.28
2018-06-11T11:44:54.056Z,60.86
2018-06-11T11:45:53.895Z,60.96
2018-06-11T11:46:53.830Z,62.23
2018-06-11T11:48:14.755Z,61.35
2018-06-11T11:49:14.692Z,62.13
2018-06-11T11:49:53.673Z,61.15
2018-06-11T11:50:53.599Z,61.44
2018-06-11T11:51:53.529Z,61.93
2018-06-11T11:53:14.447Z,61.61
2018-06-11T11:54:14.404Z,60.44
2018-06-11T11:54:53.376Z,61.97
2018-06-11T11:55:53.274Z,63.81
2018-06-11T11:56:53.231Z,64.07
2018-06-11T11:58:14.167Z,62.91
2018-06-11T11:59:14.084Z,63.78
2018-06-11T11:59:53.052Z,64.33
2018-06-11T12:00:53.008Z,64.23
2018-06-11T12:01:52.912Z,65.30
2018-06-11T12:03:13.837Z,64.95
2018-06-11T12:04:13.780Z,65.63
2018-06-11T12:04:52.728Z,64.07
2018-06-11T12:05:52.678Z,63.29
2018-06-11T12:06:52.609Z,63.88
2018-06-11T12:08:13.533Z,63.78
2018-06-11T12:09:13.463Z,63.20
2018-06-11T12:09:52.419Z,64.20
2018-06-11T12:10:52.367Z,62.91
2018-06-11T12:11:52.298Z,62.26
2018-06-11T12:13:13.234Z,63.13
2018-06-11T12:14:13.789Z,63.13
2018-06-11T12:14:52.100Z,63.88
2018-06-11T12:15:52.037Z,63.78
2018-06-11T12:16:52.005Z,64.46
2018-06-11T12:18:12.892Z,63.78
2018-06-11T12:19:12.898Z,63.78
2018-06-11T12:19:51.803Z,63.01
2018-06-11T12:20:51.735Z,65.24
2018-06-11T12:21:51.668Z,63.78
2018-06-11T12:23:12.572Z,63.20
2018-06-11T12:24:12.528Z,63.20
2018-06-11T12:24:51.491Z,63.29
2018-06-11T12:25:51.431Z,64.23
2018-06-11T12:26:51.345Z,65.33
2018-06-11T12:28:12.261Z,63.78
2018-06-11T12:29:12.229Z,66.21
2018-06-11T12:29:51.155Z,64.95
2018-06-11T12:30:51.089Z,64.26
2018-06-11T12:31:51.031Z,64.36
2018-06-11T12:33:11.960Z,65.53
2018-06-11T12:34:11.876Z,65.24
2018-06-11T12:34:50.835Z,66.02
2018-06-11T12:35:50.816Z,64.17
2018-06-11T12:36:50.704Z,63.49
2018-06-11T12:38:11.630Z,63.10
2018-06-11T12:39:11.601Z,63.13
2018-06-11T12:39:50.518Z,61.48
2018-06-11T12:40:50.441Z,62.04
2018-06-11T12:41:50.391Z,63.01
2018-06-11T12:43:11.317Z,63.23
2018-06-11T12:44:11.258Z,62.04
2018-06-11T12:44:50.200Z,63.68
2018-06-11T12:45:50.140Z,63.68
2018-06-11T12:46:50.093Z,61.94
2018-06-11T12:48:11.745Z,62.39
2018-06-11T12:49:11.725Z,62.68
2018-06-11T12:49:49.881Z,62.10
2018-06-11T12:50:49.853Z,61.81